Pagina principale
METAR-TAF:

METAR-TAF

Aeroporti :

Aeroporto militare

Niederstetten, Germania

latitudine: 49-24N, longitudine: 009-58E, altezza: 468 m

Osservazione

Il bollettino è stato emesso 16 minuti fa, alle 23:20 UTC
Vento 7 kt da est
Temperature 9°C
Umidità 61%
Pressione 1023 hPa
Visibilità 10 km o più
Poco nuvoloso ad un'altezza di 7000 ft

METAR: ETHN 292320Z 09007KT 9999 FEW070 09/02 Q1023 BLU+

Ora: 01:36 (23:36 UTC)

Previsione

Il bollettino è stato emesso 13 ore e 36 minuti fa, alle 10:00 UTC
Previsione valida dal 29 alle 11 UTC al 29 alle 20 UTC
Vento 8 kt da est/nord-est
Visibilità 10 km o più
Poco nuvoloso ad un'altezza di 4500 ft

TAF: ETHN 291000Z 2911/2920 06008KT 9999 NSW FEW045

Osservazioni e previsioni meteorologiche di più di 4000 aeroporti (messaggi METAR e TAF).

Le stazioni disponibili sono rappresentate dai dischi gialli e rossi sulla carta.

Puntare il mouse per vedere il nome della stazione.

Clicca sopra per visualizzare le osservazioni e previsioni meteorologiche.

Per cambiare la mappa : fare clic sui pulsanti verdi con una croce nera per ingrandire, il pulsante verde con un trattino per diminuire, o sulla freccia verde per le mappe adiacenti.


METAR-TAF: